首页
METAR-TAF:

METAR-TAF

机场 :

科威特國際機場

科威特, 科威特

纬度: 29-13N, 经度: 047-59E, 海拔: 55米

当前天气观测

该预报发布于28分钟前的20:00 UTC
风速6节,风向
温度 12°C
湿度 71%
气压 1022 hPa
能见度10公里或以上
1500米以下无云,无积雨云

METAR: OKBK 232000Z 01006KT CAVOK 12/07 Q1022 NOSIG

时间: 23:28 (20:28 UTC)

预报

该预报发布于3小时和43分钟前的16:45 UTC
预报有效从23日的 18点(UTC)到 24日的 24点(UTC)
风速10节,风向北转西北
能見度: 7000
短暂存在
从 23日的 18点(UTC)到 24日的 06点(UTC)
风速3节,风向多变

TAF: OKBK 231645Z 2318/2424 33010KT 7000 NSC TEMPO 2318/2406 VRB03KT

超过4000个机场的气象观测和天气预报(METAR&TAF报告)。

可查询的气象台以黄色和红色小点在地图上表示。

将鼠标移到小点上方,可查看气象台名称。

然后点击查看天气观测和预报。

如需切换地图:点击带黑十字的绿色按钮放大地图;点击带横线的绿色按钮缩小地图;或者点击绿色箭头查看邻近地区的地图。


METAR-TAF: